Haverhill, Massachusetts
Traffic Map
Current Weather Conditions
Haverhill, Massachusetts
Broken Clouds
Broken Clouds
21°
Feels Like: 21°
Wind Chill: 21° Ceiling: 2600
Heat Index: 21° Visibility: 10mi
Dew Point: 11° Wind: 0mph
Humidity: 65% Direction: ° ()
Pressure: 30.2in Gusts: 0mph
Raw Report DataKLWM 110954Z AUTO 00000KT 10SM BKN026 M06/M12 A3020 RMK AO2 SLP227 T10611117
Traffic Incident Summary
Active as of:
Severity:
Category:
InformationThere was an issue retrieving the traffic information for this location. Please try a different location or try again shortly.
Advertisements